createdAt,value
2018-03-17T00:00:59.507Z,66.40
2018-03-17T00:03:26.991Z,66.40
2018-03-17T00:05:54.465Z,66.30
2018-03-17T00:08:21.933Z,65.80
2018-03-17T00:10:49.402Z,66.20
2018-03-17T00:13:17.650Z,65.50
2018-03-17T00:15:45.138Z,65.50
2018-03-17T00:18:13.365Z,65.80
2018-03-17T00:20:40.865Z,65.90
2018-03-17T00:23:09.098Z,65.60
2018-03-17T00:25:36.609Z,65.40
2018-03-17T00:28:04.835Z,66.40
2018-03-17T00:30:32.300Z,66.30
2018-03-17T00:32:59.778Z,66.00
2018-03-17T00:35:27.241Z,66.20
2018-03-17T00:37:55.490Z,66.30
2018-03-17T00:40:22.957Z,66.30
2018-03-17T00:42:50.441Z,66.10
2018-03-17T00:45:17.938Z,66.20
2018-03-17T00:47:45.418Z,66.80
2018-03-17T00:50:12.890Z,67.00
2018-03-17T00:52:40.362Z,66.80
2018-03-17T00:55:08.698Z,67.10
2018-03-17T00:57:36.166Z,67.10
2018-03-17T01:00:03.650Z,67.30
2018-03-17T01:02:31.878Z,67.50
2018-03-17T01:04:59.358Z,67.60
2018-03-17T01:07:26.849Z,67.60
2018-03-17T01:09:54.298Z,67.60
2018-03-17T01:12:21.766Z,67.40
2018-03-17T01:14:50.015Z,67.80
2018-03-17T01:17:17.515Z,67.60
2018-03-17T01:19:45.002Z,67.80
2018-03-17T01:22:12.482Z,68.10
2018-03-17T01:24:39.942Z,67.70
2018-03-17T01:27:07.422Z,68.00
2018-03-17T01:29:34.878Z,68.00
2018-03-17T01:32:03.183Z,68.40
2018-03-17T01:34:30.645Z,68.30
2018-03-17T01:36:58.123Z,68.40
2018-03-17T01:39:25.590Z,68.00
2018-03-17T01:41:53.040Z,68.10
2018-03-17T01:44:20.523Z,68.40
2018-03-17T01:46:48.002Z,68.30
2018-03-17T01:49:16.265Z,68.40
2018-03-17T01:51:43.734Z,68.40
2018-03-17T01:54:23.811Z,68.80
2018-03-17T01:56:51.374Z,68.80
2018-03-17T01:59:18.855Z,68.80
2018-03-17T02:01:46.314Z,68.80
2018-03-17T02:04:13.797Z,69.10
2018-03-17T02:06:41.263Z,69.00
2018-03-17T02:09:08.742Z,69.20
2018-03-17T02:11:36.214Z,69.30
2018-03-17T02:14:03.672Z,69.50
2018-03-17T02:16:31.153Z,69.30
2018-03-17T02:18:58.630Z,69.60
2018-03-17T02:21:26.115Z,69.60
2018-03-17T02:23:54.369Z,69.50
2018-03-17T02:26:22.599Z,69.60
2018-03-17T02:28:50.089Z,69.50
2018-03-17T02:31:17.542Z,69.70
2018-03-17T02:33:45.035Z,69.50
2018-03-17T02:36:13.251Z,69.80
2018-03-17T02:38:40.734Z,69.80
2018-03-17T02:41:08.194Z,69.90
2018-03-17T02:43:35.676Z,70.00
2018-03-17T02:46:03.894Z,70.10
2018-03-17T02:48:31.392Z,70.20
2018-03-17T02:50:58.848Z,70.30
2018-03-17T02:53:26.336Z,70.80
2018-03-17T02:55:53.858Z,69.90
2018-03-17T02:58:21.338Z,70.00
2018-03-17T03:00:49.563Z,70.00
2018-03-17T03:03:17.045Z,69.80
2018-03-17T03:05:44.530Z,69.80
2018-03-17T03:08:11.989Z,70.10
2018-03-17T03:10:39.474Z,70.00
2018-03-17T03:13:06.918Z,69.70
2018-03-17T03:15:34.402Z,69.80
2018-03-17T03:18:01.874Z,69.50
2018-03-17T03:20:32.839Z,69.40
2018-03-17T03:23:00.343Z,69.80
2018-03-17T03:25:27.812Z,69.60
2018-03-17T03:27:55.306Z,69.70
2018-03-17T03:30:22.774Z,69.50
2018-03-17T03:32:50.229Z,69.90
2018-03-17T03:35:17.701Z,70.00
2018-03-17T03:37:45.953Z,69.60
2018-03-17T03:40:13.413Z,69.50
2018-03-17T03:42:40.917Z,69.10
2018-03-17T03:45:08.373Z,69.00
2018-03-17T03:47:35.838Z,69.00
2018-03-17T03:50:03.294Z,68.80
2018-03-17T03:52:30.801Z,69.10
2018-03-17T03:54:58.282Z,69.20
2018-03-17T03:57:25.766Z,68.90
2018-03-17T03:59:53.226Z,68.90
2018-03-17T04:02:20.708Z,68.80
2018-03-17T04:04:48.952Z,68.70
2018-03-17T04:07:16.430Z,68.70
2018-03-17T04:09:43.877Z,68.00
2018-03-17T04:12:11.345Z,68.40
2018-03-17T04:14:38.798Z,68.40
2018-03-17T04:17:06.293Z,68.40
2018-03-17T04:19:33.758Z,68.40
2018-03-17T04:22:01.238Z,68.40
2018-03-17T04:24:28.710Z,68.30
2018-03-17T04:26:56.189Z,68.10
2018-03-17T04:29:23.646Z,68.20
2018-03-17T04:31:51.102Z,67.50
2018-03-17T04:34:18.573Z,67.30
2018-03-17T04:36:46.022Z,67.00
2018-03-17T04:39:13.532Z,67.00
2018-03-17T04:41:40.979Z,66.90
2018-03-17T04:44:09.219Z,65.50
2018-03-17T04:46:36.661Z,65.50
2018-03-17T04:49:04.138Z,66.00
2018-03-17T04:51:31.623Z,65.90
2018-03-17T04:53:59.844Z,66.30
2018-03-17T04:56:27.322Z,66.20
2018-03-17T04:58:54.778Z,65.90
2018-03-17T05:01:22.239Z,65.20
2018-03-17T05:03:49.731Z,65.60
2018-03-17T05:06:17.216Z,65.70
2018-03-17T05:08:44.701Z,65.80
2018-03-17T05:11:12.157Z,66.20
2018-03-17T05:13:39.626Z,66.10
2018-03-17T05:16:07.080Z,66.30
2018-03-17T05:18:34.537Z,67.00
2018-03-17T05:21:02.006Z,67.70
2018-03-17T05:23:29.494Z,67.10
2018-03-17T05:25:56.949Z,67.30
2018-03-17T05:28:24.400Z,67.00
2018-03-17T05:30:52.653Z,66.20
2018-03-17T05:33:20.088Z,66.20
2018-03-17T05:35:47.558Z,65.80
2018-03-17T05:38:15.018Z,65.90
2018-03-17T05:40:42.490Z,65.40
2018-03-17T05:43:10.729Z,64.80
2018-03-17T05:45:38.225Z,64.80
2018-03-17T05:48:06.465Z,63.80
2018-03-17T05:50:33.945Z,63.80
2018-03-17T05:53:01.401Z,62.20
2018-03-17T05:55:28.907Z,61.30
2018-03-17T05:57:56.391Z,61.70
2018-03-17T06:00:23.849Z,61.20
2018-03-17T06:02:51.301Z,61.20
2018-03-17T06:05:18.882Z,60.50
2018-03-17T06:07:46.333Z,60.30
2018-03-17T06:10:13.831Z,60.30
2018-03-17T06:12:42.033Z,60.20
2018-03-17T06:15:09.506Z,60.10
2018-03-17T06:17:36.985Z,60.40
2018-03-17T06:20:04.433Z,60.00
2018-03-17T06:22:31.889Z,59.80
2018-03-17T06:25:00.164Z,60.50
2018-03-17T06:27:27.636Z,60.40
2018-03-17T06:29:55.108Z,60.20
2018-03-17T06:32:23.350Z,60.10
2018-03-17T06:34:50.811Z,60.10
2018-03-17T06:37:18.275Z,60.30
2018-03-17T06:39:45.742Z,60.50
2018-03-17T06:42:13.978Z,60.40
2018-03-17T06:44:41.447Z,59.80
2018-03-17T06:47:08.927Z,59.30
2018-03-17T06:49:36.370Z,59.60
2018-03-17T06:52:03.845Z,59.30
2018-03-17T06:54:31.310Z,59.00
2018-03-17T06:56:58.796Z,59.00
2018-03-17T06:59:26.261Z,57.90
2018-03-17T07:01:53.726Z,57.90
2018-03-17T07:04:21.206Z,57.50
2018-03-17T07:06:48.690Z,57.60
2018-03-17T07:09:16.129Z,57.70
2018-03-17T07:11:43.632Z,57.30
2018-03-17T07:14:11.077Z,57.80
2018-03-17T07:16:39.309Z,57.70
2018-03-17T07:19:06.792Z,57.70
2018-03-17T07:21:34.244Z,57.60
2018-03-17T07:24:01.724Z,56.90
2018-03-17T07:26:29.953Z,57.40
2018-03-17T07:28:57.430Z,57.00
2018-03-17T07:31:24.882Z,57.40
2018-03-17T07:33:52.366Z,56.80
2018-03-17T07:36:19.825Z,56.50
2018-03-17T07:38:47.318Z,55.80
2018-03-17T07:41:14.805Z,55.80
2018-03-17T07:43:42.262Z,55.60
2018-03-17T07:46:09.740Z,55.40
2018-03-17T07:48:37.970Z,54.00
2018-03-17T07:51:05.474Z,54.00
2018-03-17T07:53:32.933Z,54.90
2018-03-17T07:56:00.518Z,54.10
2018-03-17T07:58:27.995Z,53.30
2018-03-17T08:00:55.431Z,53.60
2018-03-17T08:03:22.898Z,52.90
2018-03-17T08:05:50.334Z,53.10
2018-03-17T08:08:18.574Z,53.10
2018-03-17T08:10:46.052Z,53.10
2018-03-17T08:13:13.502Z,52.30
2018-03-17T08:15:40.977Z,51.30
2018-03-17T08:18:09.222Z,52.70
2018-03-17T08:20:36.683Z,52.70
2018-03-17T08:23:04.166Z,52.90
2018-03-17T08:25:32.390Z,51.80
2018-03-17T08:27:59.852Z,51.50
2018-03-17T08:30:27.330Z,51.40
2018-03-17T08:32:54.793Z,50.60
2018-03-17T08:35:23.014Z,51.80
2018-03-17T08:37:50.505Z,51.30
2018-03-17T08:40:17.950Z,50.30
2018-03-17T08:42:45.421Z,48.60
2018-03-17T08:45:13.633Z,49.80
2018-03-17T08:47:41.114Z,49.90
2018-03-17T08:50:08.553Z,48.30
2018-03-17T08:52:36.001Z,48.80
2018-03-17T08:55:03.484Z,48.30
2018-03-17T08:57:30.951Z,47.20
2018-03-17T08:59:58.405Z,46.60
2018-03-17T09:02:25.882Z,46.20
2018-03-17T09:04:53.347Z,46.40
2018-03-17T09:07:20.825Z,46.70
2018-03-17T09:09:48.311Z,46.10
2018-03-17T09:12:15.777Z,44.60
2018-03-17T09:14:43.222Z,44.90
2018-03-17T09:17:10.706Z,44.70
2018-03-17T09:19:38.202Z,44.70
2018-03-17T09:22:05.671Z,44.60
2018-03-17T09:24:33.181Z,44.50
2018-03-17T09:27:01.479Z,45.50
2018-03-17T09:29:28.936Z,45.00
2018-03-17T09:31:56.394Z,44.90
2018-03-17T09:34:23.878Z,44.40
2018-03-17T09:36:51.325Z,43.50
2018-03-17T09:39:18.790Z,42.30
2018-03-17T09:41:46.272Z,42.20
2018-03-17T09:44:14.487Z,43.70
2018-03-17T09:46:41.930Z,43.60
2018-03-17T09:49:09.414Z,42.70
2018-03-17T09:51:36.893Z,43.00
2018-03-17T09:54:05.111Z,43.20
2018-03-17T09:56:32.553Z,43.60
2018-03-17T09:59:00.026Z,43.50
2018-03-17T10:01:27.470Z,43.00
2018-03-17T10:03:54.942Z,42.40
2018-03-17T10:06:22.408Z,41.00
2018-03-17T10:08:49.900Z,40.90
2018-03-17T10:11:17.394Z,41.10
2018-03-17T10:13:44.845Z,41.00
2018-03-17T10:16:12.329Z,40.10
2018-03-17T10:18:39.785Z,41.10
2018-03-17T10:21:07.254Z,41.20
2018-03-17T10:23:34.819Z,41.00
2018-03-17T10:26:02.983Z,41.70
2018-03-17T10:28:30.444Z,41.20
2018-03-17T10:30:57.897Z,40.50
2018-03-17T10:33:25.349Z,41.20
2018-03-17T10:35:52.797Z,40.90
2018-03-17T10:38:20.261Z,41.70
2018-03-17T10:40:48.598Z,40.80
2018-03-17T10:43:16.834Z,39.60
2018-03-17T10:45:44.328Z,39.40
2018-03-17T10:48:11.782Z,37.70
2018-03-17T10:50:39.241Z,38.90
2018-03-17T10:53:06.714Z,38.60
2018-03-17T10:55:34.171Z,37.80
2018-03-17T10:58:01.649Z,37.80
2018-03-17T11:00:29.106Z,37.70
2018-03-17T11:02:56.565Z,35.50
2018-03-17T11:05:24.042Z,35.30
2018-03-17T11:07:51.500Z,35.60
2018-03-17T11:10:18.940Z,35.90
2018-03-17T11:12:46.416Z,35.90
2018-03-17T11:15:13.863Z,35.60
2018-03-17T11:17:41.325Z,35.60
2018-03-17T11:20:08.818Z,35.10
2018-03-17T11:22:36.297Z,35.70
2018-03-17T11:25:03.756Z,35.10
2018-03-17T11:27:31.206Z,33.60
2018-03-17T11:29:59.522Z,35.70
2018-03-17T11:32:26.980Z,35.70
2018-03-17T11:34:54.448Z,35.60
2018-03-17T11:37:21.912Z,35.60
2018-03-17T11:39:49.373Z,35.50
2018-03-17T11:42:17.594Z,34.50
2018-03-17T11:44:45.079Z,34.50
2018-03-17T11:47:12.534Z,33.30
2018-03-17T11:49:39.999Z,34.10
2018-03-17T11:52:07.456Z,33.70
2018-03-17T11:54:34.974Z,33.10
2018-03-17T11:57:02.434Z,32.40
2018-03-17T11:59:29.879Z,33.50
2018-03-17T12:01:58.109Z,32.90
2018-03-17T12:04:25.561Z,32.80
2018-03-17T12:06:53.812Z,30.80
2018-03-17T12:09:21.257Z,30.60
2018-03-17T12:11:48.722Z,30.20
2018-03-17T12:14:16.177Z,29.70
2018-03-17T12:16:43.628Z,31.20
2018-03-17T12:19:11.213Z,32.50
2018-03-17T12:21:38.666Z,31.40
2018-03-17T12:24:06.145Z,30.80
2018-03-17T12:26:33.586Z,31.00
2018-03-17T12:29:01.062Z,30.50
2018-03-17T12:31:28.510Z,29.60
2018-03-17T12:33:55.986Z,30.70
2018-03-17T12:36:23.442Z,29.40
2018-03-17T12:38:50.889Z,30.50
2018-03-17T12:41:18.358Z,31.10
2018-03-17T12:43:45.797Z,29.70
2018-03-17T12:46:13.266Z,28.80
2018-03-17T12:48:40.710Z,29.40
2018-03-17T12:51:08.197Z,29.10
2018-03-17T12:53:35.647Z,29.00
2018-03-17T12:56:03.097Z,29.70
2018-03-17T12:58:30.566Z,29.70
2018-03-17T13:00:58.016Z,28.60
2018-03-17T13:03:25.486Z,29.20
2018-03-17T13:05:52.934Z,30.00
2018-03-17T13:08:20.394Z,31.40
2018-03-17T13:10:47.890Z,32.00
2018-03-17T13:13:15.343Z,31.60
2018-03-17T13:15:42.817Z,31.20
2018-03-17T13:18:10.301Z,32.50
2018-03-17T13:20:37.761Z,31.70
2018-03-17T13:23:17.201Z,30.70
2018-03-17T13:25:44.582Z,30.80
2018-03-17T13:31:05.582Z,29.10
2018-03-17T13:33:33.049Z,30.10
2018-03-17T13:36:12.342Z,30.10
2018-03-17T13:38:39.802Z,30.00
2018-03-17T13:41:07.276Z,30.10
2018-03-17T13:43:34.742Z,30.50
2018-03-17T13:46:02.373Z,29.70
2018-03-17T13:48:29.853Z,30.00
2018-03-17T13:50:57.311Z,29.80
2018-03-17T13:53:25.557Z,29.20
2018-03-17T13:55:53.033Z,29.10
2018-03-17T13:58:20.482Z,28.20
2018-03-17T14:00:47.953Z,28.80
2018-03-17T14:03:15.441Z,29.20
2018-03-17T14:05:43.146Z,30.00
2018-03-17T14:08:10.706Z,30.40
2018-03-17T14:10:38.182Z,31.30
2018-03-17T14:13:05.649Z,30.50
2018-03-17T14:15:33.130Z,31.00
2018-03-17T14:18:00.602Z,31.00
2018-03-17T14:20:28.062Z,31.00
2018-03-17T14:22:55.574Z,30.80
2018-03-17T14:25:23.062Z,31.00
2018-03-17T14:27:50.530Z,31.50
2018-03-17T14:30:18.747Z,32.60
2018-03-17T14:32:46.210Z,32.60
2018-03-17T14:35:13.686Z,34.10
2018-03-17T14:37:41.168Z,34.50
2018-03-17T14:40:09.193Z,34.10
2018-03-17T14:42:36.649Z,35.20
2018-03-17T14:45:04.144Z,35.10
2018-03-17T14:47:31.602Z,36.10
2018-03-17T14:49:59.070Z,35.90
2018-03-17T14:52:27.355Z,37.40
2018-03-17T14:54:54.798Z,37.40
2018-03-17T14:57:22.273Z,37.30
2018-03-17T14:59:50.481Z,38.10
2018-03-17T15:02:17.961Z,38.00
2018-03-17T15:04:45.424Z,38.20
2018-03-17T15:07:12.906Z,38.60
2018-03-17T15:09:41.157Z,38.70
2018-03-17T15:12:08.626Z,38.70
2018-03-17T15:14:36.081Z,38.60
2018-03-17T15:17:03.562Z,39.40
2018-03-17T15:19:31.810Z,40.20
2018-03-17T15:21:59.283Z,40.20
2018-03-17T15:24:26.761Z,40.00
2018-03-17T15:26:54.355Z,39.60
2018-03-17T15:29:21.811Z,39.20
2018-03-17T15:31:49.294Z,39.90
2018-03-17T15:34:16.747Z,39.60
2018-03-17T15:36:44.234Z,39.80
2018-03-17T15:39:11.719Z,39.90
2018-03-17T15:41:39.150Z,40.10
2018-03-17T15:44:06.625Z,40.10
2018-03-17T15:46:34.142Z,40.30
2018-03-17T15:49:01.600Z,40.60
2018-03-17T15:51:29.050Z,41.00
2018-03-17T15:53:56.526Z,41.40
2018-03-17T15:56:24.010Z,41.80
2018-03-17T15:58:51.473Z,42.00
2018-03-17T16:01:18.931Z,41.60
2018-03-17T16:03:46.401Z,42.00
2018-03-17T16:06:13.897Z,42.60
2018-03-17T16:08:41.379Z,43.50
2018-03-17T16:11:08.845Z,44.10
2018-03-17T16:13:37.069Z,44.40
2018-03-17T16:16:04.574Z,44.30
2018-03-17T16:18:32.021Z,43.60
2018-03-17T16:21:00.258Z,44.70
2018-03-17T16:23:27.754Z,45.00
2018-03-17T16:25:55.966Z,44.80
2018-03-17T16:28:23.427Z,44.80
2018-03-17T16:30:50.909Z,44.70
2018-03-17T16:33:18.418Z,44.70
2018-03-17T16:35:46.646Z,44.90
2018-03-17T16:38:14.129Z,44.90
2018-03-17T16:40:41.606Z,44.80
2018-03-17T16:43:09.831Z,44.70
2018-03-17T16:45:37.289Z,44.70
2018-03-17T16:48:04.795Z,45.10
2018-03-17T16:50:33.033Z,45.60
2018-03-17T16:53:00.506Z,45.60
2018-03-17T16:55:27.962Z,46.20
2018-03-17T16:57:55.445Z,46.50
2018-03-17T17:00:23.671Z,46.70
2018-03-17T17:02:51.167Z,46.70
2018-03-17T17:05:19.380Z,47.20
2018-03-17T17:07:46.822Z,47.10
2018-03-17T17:10:14.312Z,47.00
2018-03-17T17:12:41.749Z,47.20
2018-03-17T17:15:09.236Z,47.90
2018-03-17T17:17:36.703Z,47.10
2018-03-17T17:20:04.176Z,47.30
2018-03-17T17:22:32.437Z,47.60
2018-03-17T17:24:59.885Z,47.50
2018-03-17T17:27:27.354Z,47.60
2018-03-17T17:29:54.900Z,48.10
2018-03-17T17:32:22.293Z,48.10
2018-03-17T17:34:49.781Z,48.20
2018-03-17T17:37:17.229Z,48.10
2018-03-17T17:39:44.730Z,48.40
2018-03-17T17:42:12.187Z,48.70
2018-03-17T17:44:39.664Z,48.30
2018-03-17T17:47:07.142Z,48.30
2018-03-17T17:49:34.617Z,48.30
2018-03-17T17:52:02.070Z,48.40
2018-03-17T17:54:29.556Z,48.60
2018-03-17T17:56:57.007Z,48.90
2018-03-17T17:59:24.490Z,49.00
2018-03-17T18:01:51.942Z,49.00
2018-03-17T18:04:19.437Z,49.10
2018-03-17T18:06:46.924Z,49.00
2018-03-17T18:09:14.382Z,49.20
2018-03-17T18:11:41.878Z,49.00
2018-03-17T18:14:09.340Z,49.20
2018-03-17T18:16:36.819Z,49.30
2018-03-17T18:19:04.289Z,49.50
2018-03-17T18:21:31.762Z,49.30
2018-03-17T18:23:59.212Z,49.40
2018-03-17T18:26:26.683Z,49.50
2018-03-17T18:28:54.154Z,49.70
2018-03-17T18:31:21.593Z,49.50
2018-03-17T18:33:49.073Z,49.50
2018-03-17T18:36:16.554Z,49.50
2018-03-17T18:38:44.064Z,49.60
2018-03-17T18:41:11.526Z,49.50
2018-03-17T18:43:39.028Z,49.50
2018-03-17T18:46:06.490Z,49.70
2018-03-17T18:48:33.945Z,50.20
2018-03-17T18:51:01.460Z,50.50
2018-03-17T18:53:28.910Z,50.70
2018-03-17T18:55:56.365Z,50.60
2018-03-17T18:58:23.873Z,51.00
2018-03-17T19:00:51.337Z,51.10
2018-03-17T19:03:18.810Z,51.00
2018-03-17T19:05:47.069Z,51.00
2018-03-17T19:08:14.538Z,51.10
2018-03-17T19:10:42.781Z,51.10
2018-03-17T19:13:10.221Z,51.10
2018-03-17T19:15:37.691Z,51.10
2018-03-17T19:18:05.133Z,51.30
2018-03-17T19:20:32.610Z,51.40
2018-03-17T19:23:00.050Z,51.40
2018-03-17T19:25:28.318Z,51.80
2018-03-17T19:27:55.786Z,51.80
2018-03-17T19:30:23.290Z,52.00
2018-03-17T19:32:51.577Z,52.10
2018-03-17T19:35:19.053Z,52.00
2018-03-17T19:37:46.518Z,51.90
2018-03-17T19:40:13.986Z,52.20
2018-03-17T19:42:42.203Z,52.20
2018-03-17T19:45:10.442Z,52.30
2018-03-17T19:47:37.906Z,52.30
2018-03-17T19:50:06.158Z,52.60
2018-03-17T19:52:33.617Z,52.60
2018-03-17T19:55:01.081Z,52.70
2018-03-17T19:57:28.562Z,52.90
2018-03-17T19:59:56.018Z,52.70
2018-03-17T20:02:23.500Z,52.70
2018-03-17T20:04:51.717Z,52.50
2018-03-17T20:07:19.193Z,52.50
2018-03-17T20:09:46.662Z,52.80
2018-03-17T20:12:14.142Z,53.00
2018-03-17T20:14:41.617Z,53.00
2018-03-17T20:17:09.121Z,53.30
2018-03-17T20:19:36.619Z,53.20
2018-03-17T20:22:04.864Z,53.40
2018-03-17T20:24:32.306Z,53.40
2018-03-17T20:26:59.778Z,53.30
2018-03-17T20:29:27.226Z,53.30
2018-03-17T20:31:54.726Z,53.30
2018-03-17T20:34:22.186Z,53.20
2018-03-17T20:36:50.422Z,53.60
2018-03-17T20:39:17.894Z,53.60
2018-03-17T20:41:45.382Z,53.70
2018-03-17T20:44:12.834Z,53.60
2018-03-17T20:46:41.067Z,53.70
2018-03-17T20:49:08.522Z,53.70
2018-03-17T20:51:35.982Z,53.80
2018-03-17T20:54:03.476Z,53.90
2018-03-17T20:56:30.905Z,54.00
2018-03-17T20:58:58.393Z,54.10
2018-03-17T21:01:25.858Z,54.30
2018-03-17T21:03:53.358Z,54.40
2018-03-17T21:06:20.816Z,54.40
2018-03-17T21:08:48.266Z,54.50
2018-03-17T21:11:15.738Z,54.60
2018-03-17T21:13:43.206Z,54.60
2018-03-17T21:16:10.673Z,54.50
2018-03-17T21:18:38.144Z,54.40
2018-03-17T21:21:06.377Z,54.60
2018-03-17T21:23:33.826Z,54.60
2018-03-17T21:26:01.370Z,54.50
2018-03-17T21:28:28.848Z,54.50
2018-03-17T21:30:56.318Z,54.50
2018-03-17T21:33:23.770Z,54.60
2018-03-17T21:35:51.227Z,54.50
2018-03-17T21:38:18.686Z,54.70
2018-03-17T21:40:46.142Z,54.60
2018-03-17T21:43:13.618Z,54.60
2018-03-17T21:45:41.114Z,54.50
2018-03-17T21:48:08.578Z,54.50
2018-03-17T21:50:36.053Z,54.20
2018-03-17T21:53:03.524Z,54.50
2018-03-17T21:55:30.973Z,54.30
2018-03-17T21:57:58.450Z,54.00
2018-03-17T22:00:25.906Z,54.60
2018-03-17T22:02:53.366Z,53.90
2018-03-17T22:05:20.842Z,53.70
2018-03-17T22:07:49.110Z,53.70
2018-03-17T22:10:16.542Z,53.70
2018-03-17T22:12:44.025Z,53.70
2018-03-17T22:15:11.470Z,53.70
2018-03-17T22:17:38.989Z,53.50
2018-03-17T22:20:06.453Z,53.40
2018-03-17T22:22:33.937Z,53.50
2018-03-17T22:25:01.410Z,53.60
2018-03-17T22:27:29.626Z,53.40
2018-03-17T22:29:57.106Z,53.40
2018-03-17T22:32:24.566Z,53.20
2018-03-17T22:34:52.031Z,53.10
2018-03-17T22:37:19.489Z,53.70
2018-03-17T22:39:46.956Z,53.00
2018-03-17T22:42:14.438Z,53.10
2018-03-17T22:44:42.658Z,53.00
2018-03-17T22:47:10.157Z,53.10
2018-03-17T22:49:38.373Z,52.90
2018-03-17T22:52:05.833Z,52.90
2018-03-17T22:54:33.334Z,52.70
2018-03-17T22:57:00.790Z,52.70
2018-03-17T22:59:28.254Z,52.20
2018-03-17T23:01:55.723Z,52.00
2018-03-17T23:04:23.192Z,51.90
2018-03-17T23:06:51.433Z,51.70
2018-03-17T23:09:18.902Z,51.70
2018-03-17T23:11:46.394Z,51.90
2018-03-17T23:14:13.841Z,52.00
2018-03-17T23:16:41.354Z,51.70
2018-03-17T23:19:08.828Z,51.60
2018-03-17T23:21:36.301Z,51.70
2018-03-17T23:24:03.751Z,51.80
2018-03-17T23:26:31.226Z,51.70
2018-03-17T23:28:59.441Z,51.70
2018-03-17T23:31:26.934Z,51.70
2018-03-17T23:33:54.397Z,51.30
2018-03-17T23:36:21.860Z,51.40
2018-03-17T23:38:49.362Z,51.50
2018-03-17T23:41:16.822Z,51.50
2018-03-17T23:43:44.325Z,51.60
2018-03-17T23:46:12.553Z,51.60
2018-03-17T23:48:40.038Z,51.50
2018-03-17T23:51:07.502Z,51.40
2018-03-17T23:53:34.977Z,51.40
2018-03-17T23:56:03.190Z,51.50
2018-03-17T23:58:30.665Z,51.10
